»·PEaware :: N759SK KEGE-KGJT

N759SK :: KEGE-KGJT

FLIGHT INFORMATION

Flight Status: Arrived
Operator: Privately registered:
United States
More flights under this callsign
Pilot: Richard B. (16884)
Aircraft: BEECH AIRCRAFT SUPER KING AIR 350
(B350)
More flights by this aircraft type
Origin: KEGE Eagle Co Regl
United States
Destination: KGJT Walker
United States
More flights between these airports :: More routes between these airports
Route: +EKR2 EKR RIL
File this flight plan on PilotEdge
Remarks: RIL Direct
Altitude:
(Current/Filed)
16,000ft
Speed:
(Current/Filed)
270kts
Departed: 07-Oct-17 01:34 PM
Arrived: 07-Oct-17 02:08 PM
Distance/Time
Traveled:
81nm/0:34
Distance/Time
To Go:
Arrived

Flight Plot

Page will automatically refresh every two minutes.

Flight plan parsing failed; only flown route is shown


Map Options




Map Legend


Flown Route
Filed Route
Departure Airport
Arrival Airport
Navaid (VOR, NDB)
Fix

Horizontal Profiles

Position Reports

Time Latitude Longitude Heading Altitude Ground
Speed
07-Oct-17 13:08 39.641674 -106.904596 173 6539ft 0kts
07-Oct-17 13:09 39.641673 -106.904596 173 6539ft 0kts
07-Oct-17 13:10 39.641672 -106.904595 173 6539ft 0kts
07-Oct-17 13:11 39.641672 -106.904595 173 6539ft 0kts
07-Oct-17 13:12 39.641671 -106.904595 173 6539ft 0kts
07-Oct-17 13:13 39.641670 -106.904595 173 6539ft 0kts
07-Oct-17 13:14 39.641669 -106.904595 173 6539ft 0kts
07-Oct-17 13:15 39.641668 -106.904595 173 6539ft 0kts
07-Oct-17 13:16 39.641668 -106.904595 173 6539ft 0kts
07-Oct-17 13:17 39.641667 -106.904595 173 6539ft 0kts
07-Oct-17 13:18 39.641666 -106.904595 173 6539ft 0kts
07-Oct-17 13:19 39.641017 -106.904171 146 6539ft 0kts
07-Oct-17 13:20 39.641016 -106.904170 146 6539ft 0kts
07-Oct-17 13:21 39.641015 -106.904169 146 6539ft 0kts
07-Oct-17 13:22 39.641014 -106.904168 146 6539ft 0kts
07-Oct-17 13:23 39.641013 -106.904167 146 6539ft 0kts
07-Oct-17 13:24 39.641012 -106.904167 146 6539ft 0kts
07-Oct-17 13:25 39.641011 -106.904166 146 6539ft 0kts
07-Oct-17 13:26 39.641010 -106.904165 146 6539ft 0kts
07-Oct-17 13:27 39.641009 -106.904164 146 6539ft 0kts
07-Oct-17 13:28 39.641008 -106.904163 146 6539ft 0kts
07-Oct-17 13:29 39.641007 -106.904162 146 6539ft 0kts
07-Oct-17 13:30 39.641006 -106.904161 146 6539ft 0kts
07-Oct-17 13:31 39.641005 -106.904161 146 6539ft 0kts
07-Oct-17 13:32 39.641004 -106.904160 146 6539ft 0kts
07-Oct-17 13:33 39.642138 -106.904555 275 6539ft 5kts
07-Oct-17 13:34 39.643087 -106.905818 85 6539ft 17kts
07-Oct-17 13:35 39.643392 -106.903891 10 6539ft 0kts
07-Oct-17 13:36 39.643393 -106.903891 10 6539ft 0kts
07-Oct-17 13:37 39.643395 -106.903890 10 6539ft 0kts
07-Oct-17 13:38 39.642113 -106.922033 260 6816ft 141kts
07-Oct-17 13:39 39.618858 -106.970272 225 9090ft 172kts
07-Oct-17 13:40 39.586013 -107.013639 249 11361ft 170kts
07-Oct-17 13:41 39.587642 -107.070100 300 13829ft 154kts
07-Oct-17 13:42 39.609303 -107.117241 280 15686ft 167kts
07-Oct-17 13:43 39.597033 -107.184887 258 16099ft 214kts
07-Oct-17 13:44 39.586665 -107.262328 271 16102ft 222kts
07-Oct-17 13:45 39.580951 -107.343328 265 16124ft 228kts
07-Oct-17 13:46 39.567252 -107.425656 263 15840ft 238kts
07-Oct-17 13:47 39.556382 -107.509077 265 15815ft 234kts
07-Oct-17 13:48 39.544740 -107.592880 265 15815ft 236kts
07-Oct-17 13:49 39.525704 -107.674238 243 15816ft 246kts
07-Oct-17 13:50 39.485892 -107.747343 240 15814ft 248kts
07-Oct-17 13:51 39.446672 -107.821826 241 15815ft 252kts
07-Oct-17 13:52 39.409544 -107.898830 245 15814ft 252kts
07-Oct-17 13:53 39.381949 -107.965510 247 15814ft 251kts
07-Oct-17 13:54 39.344247 -108.059801 247 15425ft 264kts
07-Oct-17 13:55 39.316206 -108.131900 247 14128ft 272kts
07-Oct-17 13:57 39.278182 -108.234371 246 12313ft 272kts
07-Oct-17 13:57 39.252668 -108.308468 247 11010ft 270kts
07-Oct-17 13:58 39.223143 -108.398408 247 9339ft 265kts
07-Oct-17 13:59 39.197160 -108.479933 247 8999ft 231kts
07-Oct-17 14:01 39.168604 -108.569752 247 8999ft 232kts
07-Oct-17 14:01 39.163515 -108.637573 277 9002ft 232kts
07-Oct-17 14:02 39.175268 -108.718987 279 8999ft 231kts
07-Oct-17 14:03 39.187728 -108.800332 284 8993ft 231kts
07-Oct-17 14:04 39.219566 -108.873497 300 8552ft 247kts
07-Oct-17 14:05 39.274628 -108.917774 16 7130ft 259kts
07-Oct-17 14:06 39.298728 -108.845724 103 6988ft 225kts
07-Oct-17 14:07 39.263206 -108.784291 129 6995ft 210kts
07-Oct-17 14:08 39.231820 -108.721470 121 6998ft 207kts
07-Oct-17 14:09 39.199318 -108.661165 127 6997ft 203kts
07-Oct-17 14:10 39.169231 -108.606827 125 6082ft 165kts
07-Oct-17 14:11 39.143008 -108.559033 125 5216ft 157kts
07-Oct-17 14:12 39.124183 -108.524857 141 4862ft 22kts
07-Oct-17 14:13 39.123396 -108.524916 211 4862ft 1kts
07-Oct-17 14:14 39.123262 -108.528689 220 4862ft 0kts

Navigation Log

Ident Type
Flight plan parsing failed, navigation log unavailable